sensor_id;sensor_type;location;lat;lon;timestamp;P1;durP1;ratioP1;P2;durP2;ratioP2
18887;SDS011;9576;47.792;9.628;2022-08-14T00:01:24;15.38;;;4.78;;
18887;SDS011;9576;47.792;9.628;2022-08-14T00:04:27;6.18;;;4.63;;
18887;SDS011;9576;47.792;9.628;2022-08-14T00:07:30;9.73;;;4.30;;
18887;SDS011;9576;47.792;9.628;2022-08-14T00:10:34;5.97;;;4.72;;
18887;SDS011;9576;47.792;9.628;2022-08-14T00:13:36;9.40;;;4.60;;
18887;SDS011;9576;47.792;9.628;2022-08-14T00:16:38;7.53;;;4.07;;
18887;SDS011;9576;47.792;9.628;2022-08-14T00:19:41;8.18;;;4.53;;
18887;SDS011;9576;47.792;9.628;2022-08-14T00:22:44;14.98;;;4.10;;
18887;SDS011;9576;47.792;9.628;2022-08-14T00:25:48;7.88;;;4.35;;
18887;SDS011;9576;47.792;9.628;2022-08-14T00:28:51;5.72;;;3.80;;
18887;SDS011;9576;47.792;9.628;2022-08-14T00:31:54;4.90;;;3.90;;
18887;SDS011;9576;47.792;9.628;2022-08-14T00:34:56;10.18;;;4.07;;
18887;SDS011;9576;47.792;9.628;2022-08-14T00:38:02;12.90;;;4.03;;
18887;SDS011;9576;47.792;9.628;2022-08-14T00:41:04;11.57;;;3.57;;
18887;SDS011;9576;47.792;9.628;2022-08-14T00:44:08;5.10;;;3.40;;
18887;SDS011;9576;47.792;9.628;2022-08-14T00:47:12;14.63;;;3.55;;
18887;SDS011;9576;47.792;9.628;2022-08-14T00:50:16;4.18;;;3.00;;
18887;SDS011;9576;47.792;9.628;2022-08-14T00:53:21;4.35;;;3.28;;
18887;SDS011;9576;47.792;9.628;2022-08-14T00:56:24;5.50;;;3.20;;
18887;SDS011;9576;47.792;9.628;2022-08-14T00:59:27;5.85;;;4.45;;
18887;SDS011;9576;47.792;9.628;2022-08-14T01:02:30;2.92;;;2.58;;
18887;SDS011;9576;47.792;9.628;2022-08-14T01:05:33;5.47;;;3.78;;
18887;SDS011;9576;47.792;9.628;2022-08-14T01:08:36;4.35;;;3.13;;
18887;SDS011;9576;47.792;9.628;2022-08-14T01:11:39;7.68;;;3.25;;
18887;SDS011;9576;47.792;9.628;2022-08-14T01:14:41;5.18;;;3.28;;
18887;SDS011;9576;47.792;9.628;2022-08-14T01:17:44;4.50;;;2.75;;
18887;SDS011;9576;47.792;9.628;2022-08-14T01:21:04;8.40;;;3.50;;
18887;SDS011;9576;47.792;9.628;2022-08-14T01:24:09;3.75;;;3.33;;
18887;SDS011;9576;47.792;9.628;2022-08-14T01:27:14;9.05;;;3.40;;
18887;SDS011;9576;47.792;9.628;2022-08-14T01:30:17;10.70;;;3.67;;
18887;SDS011;9576;47.792;9.628;2022-08-14T01:33:21;6.80;;;3.40;;
18887;SDS011;9576;47.792;9.628;2022-08-14T01:36:28;5.38;;;3.53;;
18887;SDS011;9576;47.792;9.628;2022-08-14T01:39:38;10.65;;;3.80;;
18887;SDS011;9576;47.792;9.628;2022-08-14T01:42:41;11.15;;;4.05;;
18887;SDS011;9576;47.792;9.628;2022-08-14T01:45:43;9.32;;;4.47;;
18887;SDS011;9576;47.792;9.628;2022-08-14T01:48:52;13.75;;;4.28;;
18887;SDS011;9576;47.792;9.628;2022-08-14T01:51:55;5.25;;;3.92;;
18887;SDS011;9576;47.792;9.628;2022-08-14T01:54:59;4.60;;;3.70;;
18887;SDS011;9576;47.792;9.628;2022-08-14T01:58:02;6.60;;;4.22;;
18887;SDS011;9576;47.792;9.628;2022-08-14T02:01:04;7.85;;;3.33;;
18887;SDS011;9576;47.792;9.628;2022-08-14T02:04:06;3.53;;;3.00;;
18887;SDS011;9576;47.792;9.628;2022-08-14T02:07:08;6.28;;;3.78;;
18887;SDS011;9576;47.792;9.628;2022-08-14T02:10:12;3.63;;;3.08;;
18887;SDS011;9576;47.792;9.628;2022-08-14T02:13:15;4.68;;;2.97;;
18887;SDS011;9576;47.792;9.628;2022-08-14T02:16:19;9.23;;;3.30;;
18887;SDS011;9576;47.792;9.628;2022-08-14T02:19:25;7.55;;;3.38;;
18887;SDS011;9576;47.792;9.628;2022-08-14T02:25:32;5.60;;;3.55;;
18887;SDS011;9576;47.792;9.628;2022-08-14T02:28:34;7.68;;;3.92;;
18887;SDS011;9576;47.792;9.628;2022-08-14T02:31:37;4.38;;;3.53;;
18887;SDS011;9576;47.792;9.628;2022-08-14T02:34:42;7.18;;;4.57;;
18887;SDS011;9576;47.792;9.628;2022-08-14T02:37:44;5.57;;;4.40;;
18887;SDS011;9576;47.792;9.628;2022-08-14T02:40:48;8.25;;;5.13;;
18887;SDS011;9576;47.792;9.628;2022-08-14T02:43:50;5.35;;;4.18;;
18887;SDS011;9576;47.792;9.628;2022-08-14T02:46:53;7.00;;;4.75;;
18887;SDS011;9576;47.792;9.628;2022-08-14T02:49:56;5.88;;;4.72;;
18887;SDS011;9576;47.792;9.628;2022-08-14T02:52:59;7.45;;;4.82;;
18887;SDS011;9576;47.792;9.628;2022-08-14T02:56:02;6.82;;;4.97;;
18887;SDS011;9576;47.792;9.628;2022-08-14T02:59:05;7.45;;;5.53;;
18887;SDS011;9576;47.792;9.628;2022-08-14T03:02:09;9.68;;;5.30;;
18887;SDS011;9576;47.792;9.628;2022-08-14T03:05:12;5.72;;;4.22;;
18887;SDS011;9576;47.792;9.628;2022-08-14T03:08:14;10.60;;;5.00;;
18887;SDS011;9576;47.792;9.628;2022-08-14T03:11:18;8.00;;;4.32;;
18887;SDS011;9576;47.792;9.628;2022-08-14T03:14:20;7.70;;;4.50;;
18887;SDS011;9576;47.792;9.628;2022-08-14T03:17:25;5.32;;;3.40;;
18887;SDS011;9576;47.792;9.628;2022-08-14T03:20:27;7.18;;;4.65;;
18887;SDS011;9576;47.792;9.628;2022-08-14T03:23:30;7.13;;;3.78;;
18887;SDS011;9576;47.792;9.628;2022-08-14T03:26:35;5.43;;;3.97;;
18887;SDS011;9576;47.792;9.628;2022-08-14T03:29:39;9.55;;;4.57;;
18887;SDS011;9576;47.792;9.628;2022-08-14T03:32:41;12.77;;;3.90;;
18887;SDS011;9576;47.792;9.628;2022-08-14T03:35:44;7.45;;;4.47;;
18887;SDS011;9576;47.792;9.628;2022-08-14T03:38:46;5.97;;;3.70;;
18887;SDS011;9576;47.792;9.628;2022-08-14T03:41:53;7.25;;;4.40;;
18887;SDS011;9576;47.792;9.628;2022-08-14T03:44:56;5.55;;;4.28;;
18887;SDS011;9576;47.792;9.628;2022-08-14T03:47:59;5.60;;;3.78;;
18887;SDS011;9576;47.792;9.628;2022-08-14T03:51:03;5.20;;;3.53;;
18887;SDS011;9576;47.792;9.628;2022-08-14T03:54:06;9.68;;;3.72;;
18887;SDS011;9576;47.792;9.628;2022-08-14T03:57:09;4.65;;;3.97;;
18887;SDS011;9576;47.792;9.628;2022-08-14T04:00:12;6.50;;;4.40;;
18887;SDS011;9576;47.792;9.628;2022-08-14T04:03:15;5.78;;;3.80;;
18887;SDS011;9576;47.792;9.628;2022-08-14T04:06:17;7.25;;;4.70;;
18887;SDS011;9576;47.792;9.628;2022-08-14T04:09:20;10.27;;;5.25;;
18887;SDS011;9576;47.792;9.628;2022-08-14T04:12:24;16.30;;;5.18;;
18887;SDS011;9576;47.792;9.628;2022-08-14T04:15:26;6.55;;;4.40;;
18887;SDS011;9576;47.792;9.628;2022-08-14T04:18:28;7.05;;;4.03;;
18887;SDS011;9576;47.792;9.628;2022-08-14T04:21:31;8.32;;;4.82;;
18887;SDS011;9576;47.792;9.628;2022-08-14T04:24:33;13.35;;;4.50;;
18887;SDS011;9576;47.792;9.628;2022-08-14T04:27:37;6.85;;;4.00;;
18887;SDS011;9576;47.792;9.628;2022-08-14T04:30:39;6.25;;;3.80;;
18887;SDS011;9576;47.792;9.628;2022-08-14T04:33:41;6.35;;;4.43;;
18887;SDS011;9576;47.792;9.628;2022-08-14T04:36:44;5.72;;;4.40;;
18887;SDS011;9576;47.792;9.628;2022-08-14T04:40:04;7.63;;;4.15;;
18887;SDS011;9576;47.792;9.628;2022-08-14T04:43:25;7.65;;;3.90;;
18887;SDS011;9576;47.792;9.628;2022-08-14T04:46:37;6.13;;;4.10;;
18887;SDS011;9576;47.792;9.628;2022-08-14T04:49:39;8.50;;;3.80;;
18887;SDS011;9576;47.792;9.628;2022-08-14T04:52:41;4.57;;;3.70;;
18887;SDS011;9576;47.792;9.628;2022-08-14T04:55:44;4.65;;;3.78;;
18887;SDS011;9576;47.792;9.628;2022-08-14T04:58:49;5.90;;;3.90;;
18887;SDS011;9576;47.792;9.628;2022-08-14T05:01:56;6.05;;;3.97;;
18887;SDS011;9576;47.792;9.628;2022-08-14T05:04:59;4.50;;;3.45;;
18887;SDS011;9576;47.792;9.628;2022-08-14T05:08:05;6.10;;;4.07;;
18887;SDS011;9576;47.792;9.628;2022-08-14T05:11:11;6.78;;;4.32;;
18887;SDS011;9576;47.792;9.628;2022-08-14T05:14:15;12.27;;;4.22;;
18887;SDS011;9576;47.792;9.628;2022-08-14T05:17:18;7.60;;;4.87;;
18887;SDS011;9576;47.792;9.628;2022-08-14T05:20:25;7.80;;;4.65;;
18887;SDS011;9576;47.792;9.628;2022-08-14T05:23:28;12.90;;;4.95;;
18887;SDS011;9576;47.792;9.628;2022-08-14T05:26:33;4.32;;;3.85;;
18887;SDS011;9576;47.792;9.628;2022-08-14T05:29:40;10.27;;;5.10;;
18887;SDS011;9576;47.792;9.628;2022-08-14T05:32:43;9.15;;;4.32;;
18887;SDS011;9576;47.792;9.628;2022-08-14T05:35:46;8.63;;;4.72;;
18887;SDS011;9576;47.792;9.628;2022-08-14T05:38:50;7.05;;;4.88;;
18887;SDS011;9576;47.792;9.628;2022-08-14T05:41:53;12.52;;;5.75;;
18887;SDS011;9576;47.792;9.628;2022-08-14T05:44:57;8.63;;;5.68;;
18887;SDS011;9576;47.792;9.628;2022-08-14T05:47:59;7.75;;;5.45;;
18887;SDS011;9576;47.792;9.628;2022-08-14T05:51:02;13.85;;;5.25;;
18887;SDS011;9576;47.792;9.628;2022-08-14T05:54:04;7.05;;;5.05;;
18887;SDS011;9576;47.792;9.628;2022-08-14T05:57:07;15.70;;;5.50;;
18887;SDS011;9576;47.792;9.628;2022-08-14T06:00:11;5.50;;;4.72;;
18887;SDS011;9576;47.792;9.628;2022-08-14T06:03:15;8.65;;;5.45;;
18887;SDS011;9576;47.792;9.628;2022-08-14T06:06:19;10.77;;;5.50;;
18887;SDS011;9576;47.792;9.628;2022-08-14T06:09:21;12.30;;;5.50;;
18887;SDS011;9576;47.792;9.628;2022-08-14T06:12:24;12.57;;;4.88;;
18887;SDS011;9576;47.792;9.628;2022-08-14T06:15:27;8.48;;;4.82;;
18887;SDS011;9576;47.792;9.628;2022-08-14T06:18:29;10.25;;;5.35;;
18887;SDS011;9576;47.792;9.628;2022-08-14T06:21:32;13.52;;;6.13;;
18887;SDS011;9576;47.792;9.628;2022-08-14T06:24:34;34.03;;;9.82;;
18887;SDS011;9576;47.792;9.628;2022-08-14T06:27:36;22.73;;;6.22;;
18887;SDS011;9576;47.792;9.628;2022-08-14T06:30:40;8.60;;;5.63;;
18887;SDS011;9576;47.792;9.628;2022-08-14T06:33:42;15.43;;;5.65;;
18887;SDS011;9576;47.792;9.628;2022-08-14T06:36:44;11.50;;;5.07;;
18887;SDS011;9576;47.792;9.628;2022-08-14T06:39:46;7.28;;;4.68;;
18887;SDS011;9576;47.792;9.628;2022-08-14T06:42:48;9.40;;;5.40;;
18887;SDS011;9576;47.792;9.628;2022-08-14T06:45:52;6.78;;;4.75;;
18887;SDS011;9576;47.792;9.628;2022-08-14T06:48:54;11.13;;;5.55;;
18887;SDS011;9576;47.792;9.628;2022-08-14T06:51:57;11.88;;;6.00;;
18887;SDS011;9576;47.792;9.628;2022-08-14T06:54:59;14.18;;;4.90;;
18887;SDS011;9576;47.792;9.628;2022-08-14T06:58:02;6.90;;;4.63;;
18887;SDS011;9576;47.792;9.628;2022-08-14T07:01:06;6.65;;;4.10;;
18887;SDS011;9576;47.792;9.628;2022-08-14T07:04:25;13.25;;;4.90;;
18887;SDS011;9576;47.792;9.628;2022-08-14T07:07:45;6.75;;;4.95;;
18887;SDS011;9576;47.792;9.628;2022-08-14T07:10:48;14.07;;;5.20;;
18887;SDS011;9576;47.792;9.628;2022-08-14T07:16:55;11.65;;;5.30;;
18887;SDS011;9576;47.792;9.628;2022-08-14T07:19:57;9.23;;;4.80;;
18887;SDS011;9576;47.792;9.628;2022-08-14T07:23:00;6.50;;;4.95;;
18887;SDS011;9576;47.792;9.628;2022-08-14T07:26:04;6.70;;;4.78;;
18887;SDS011;9576;47.792;9.628;2022-08-14T07:29:06;12.13;;;4.38;;
18887;SDS011;9576;47.792;9.628;2022-08-14T07:32:10;13.35;;;4.55;;
18887;SDS011;9576;47.792;9.628;2022-08-14T07:35:12;11.15;;;4.45;;
18887;SDS011;9576;47.792;9.628;2022-08-14T07:38:16;7.68;;;5.07;;
18887;SDS011;9576;47.792;9.628;2022-08-14T07:41:19;6.53;;;4.75;;
18887;SDS011;9576;47.792;9.628;2022-08-14T07:44:21;4.60;;;3.85;;
18887;SDS011;9576;47.792;9.628;2022-08-14T07:47:25;6.38;;;3.60;;
18887;SDS011;9576;47.792;9.628;2022-08-14T07:50:27;5.78;;;3.60;;
18887;SDS011;9576;47.792;9.628;2022-08-14T07:53:29;5.95;;;3.53;;
18887;SDS011;9576;47.792;9.628;2022-08-14T07:56:32;3.90;;;3.20;;
18887;SDS011;9576;47.792;9.628;2022-08-14T07:59:35;5.53;;;3.53;;
18887;SDS011;9576;47.792;9.628;2022-08-14T08:02:39;5.82;;;3.63;;
18887;SDS011;9576;47.792;9.628;2022-08-14T08:05:43;5.93;;;4.13;;
18887;SDS011;9576;47.792;9.628;2022-08-14T08:08:46;7.75;;;3.92;;
18887;SDS011;9576;47.792;9.628;2022-08-14T08:14:53;7.22;;;3.63;;
18887;SDS011;9576;47.792;9.628;2022-08-14T08:17:59;3.65;;;3.03;;
18887;SDS011;9576;47.792;9.628;2022-08-14T08:21:04;5.85;;;3.78;;
18887;SDS011;9576;47.792;9.628;2022-08-14T08:24:07;4.75;;;2.78;;
18887;SDS011;9576;47.792;9.628;2022-08-14T08:27:13;3.92;;;3.03;;
18887;SDS011;9576;47.792;9.628;2022-08-14T08:30:16;4.05;;;2.92;;
18887;SDS011;9576;47.792;9.628;2022-08-14T08:33:21;5.50;;;2.83;;
18887;SDS011;9576;47.792;9.628;2022-08-14T08:36:25;3.58;;;2.92;;
18887;SDS011;9576;47.792;9.628;2022-08-14T08:39:27;5.57;;;2.88;;
18887;SDS011;9576;47.792;9.628;2022-08-14T08:42:30;8.20;;;2.20;;
18887;SDS011;9576;47.792;9.628;2022-08-14T08:45:32;4.15;;;3.10;;
18887;SDS011;9576;47.792;9.628;2022-08-14T08:48:43;4.97;;;2.90;;
18887;SDS011;9576;47.792;9.628;2022-08-14T08:51:47;3.45;;;2.67;;
18887;SDS011;9576;47.792;9.628;2022-08-14T08:54:51;10.13;;;3.28;;
18887;SDS011;9576;47.792;9.628;2022-08-14T08:57:57;5.97;;;2.65;;
18887;SDS011;9576;47.792;9.628;2022-08-14T09:01:01;4.55;;;2.35;;
18887;SDS011;9576;47.792;9.628;2022-08-14T09:04:04;5.40;;;2.80;;
18887;SDS011;9576;47.792;9.628;2022-08-14T09:07:07;3.40;;;2.40;;
18887;SDS011;9576;47.792;9.628;2022-08-14T09:10:09;3.65;;;2.63;;
18887;SDS011;9576;47.792;9.628;2022-08-14T09:13:11;3.88;;;2.80;;
18887;SDS011;9576;47.792;9.628;2022-08-14T09:16:15;6.57;;;2.33;;
18887;SDS011;9576;47.792;9.628;2022-08-14T09:19:25;13.15;;;2.88;;
18887;SDS011;9576;47.792;9.628;2022-08-14T09:22:28;4.75;;;2.78;;
18887;SDS011;9576;47.792;9.628;2022-08-14T09:25:31;4.25;;;2.70;;
18887;SDS011;9576;47.792;9.628;2022-08-14T09:28:34;2.97;;;2.33;;
18887;SDS011;9576;47.792;9.628;2022-08-14T09:31:36;4.45;;;2.90;;
18887;SDS011;9576;47.792;9.628;2022-08-14T09:34:47;4.85;;;2.50;;
18887;SDS011;9576;47.792;9.628;2022-08-14T09:37:58;4.55;;;2.50;;
18887;SDS011;9576;47.792;9.628;2022-08-14T09:41:08;7.95;;;2.63;;
18887;SDS011;9576;47.792;9.628;2022-08-14T09:44:25;3.17;;;2.35;;
18887;SDS011;9576;47.792;9.628;2022-08-14T09:47:40;6.03;;;2.28;;
18887;SDS011;9576;47.792;9.628;2022-08-14T09:50:45;2.95;;;2.15;;
18887;SDS011;9576;47.792;9.628;2022-08-14T09:57:00;2.70;;;2.30;;
18887;SDS011;9576;47.792;9.628;2022-08-14T10:00:08;3.22;;;2.15;;
18887;SDS011;9576;47.792;9.628;2022-08-14T10:03:23;4.82;;;2.10;;
18887;SDS011;9576;47.792;9.628;2022-08-14T10:06:40;2.85;;;2.42;;
18887;SDS011;9576;47.792;9.628;2022-08-14T10:09:45;3.83;;;2.33;;
18887;SDS011;9576;47.792;9.628;2022-08-14T10:12:48;11.37;;;2.20;;
18887;SDS011;9576;47.792;9.628;2022-08-14T10:15:50;3.53;;;2.30;;
18887;SDS011;9576;47.792;9.628;2022-08-14T10:19:00;4.80;;;2.25;;
18887;SDS011;9576;47.792;9.628;2022-08-14T10:22:07;4.60;;;1.95;;
18887;SDS011;9576;47.792;9.628;2022-08-14T10:25:10;3.08;;;1.88;;
18887;SDS011;9576;47.792;9.628;2022-08-14T10:28:14;5.47;;;2.60;;
18887;SDS011;9576;47.792;9.628;2022-08-14T10:31:19;3.77;;;1.90;;
18887;SDS011;9576;47.792;9.628;2022-08-14T10:34:22;2.17;;;1.83;;
18887;SDS011;9576;47.792;9.628;2022-08-14T10:37:37;6.93;;;2.30;;
18887;SDS011;9576;47.792;9.628;2022-08-14T10:40:40;2.95;;;1.80;;
18887;SDS011;9576;47.792;9.628;2022-08-14T10:43:42;2.92;;;1.95;;
18887;SDS011;9576;47.792;9.628;2022-08-14T10:46:50;2.95;;;2.22;;
18887;SDS011;9576;47.792;9.628;2022-08-14T10:49:57;5.85;;;1.98;;
18887;SDS011;9576;47.792;9.628;2022-08-14T10:53:01;3.38;;;1.88;;
18887;SDS011;9576;47.792;9.628;2022-08-14T10:56:07;2.88;;;2.15;;
18887;SDS011;9576;47.792;9.628;2022-08-14T10:59:13;3.00;;;2.20;;
18887;SDS011;9576;47.792;9.628;2022-08-14T11:05:37;2.20;;;1.98;;
18887;SDS011;9576;47.792;9.628;2022-08-14T11:08:45;2.35;;;2.05;;
18887;SDS011;9576;47.792;9.628;2022-08-14T11:11:53;4.25;;;2.17;;
18887;SDS011;9576;47.792;9.628;2022-08-14T11:14:56;3.95;;;2.28;;
18887;SDS011;9576;47.792;9.628;2022-08-14T11:18:00;3.20;;;2.03;;
18887;SDS011;9576;47.792;9.628;2022-08-14T11:21:04;3.45;;;2.40;;
18887;SDS011;9576;47.792;9.628;2022-08-14T11:24:08;4.10;;;2.42;;
18887;SDS011;9576;47.792;9.628;2022-08-14T11:27:14;4.40;;;1.90;;
18887;SDS011;9576;47.792;9.628;2022-08-14T11:30:21;2.47;;;1.95;;
18887;SDS011;9576;47.792;9.628;2022-08-14T11:33:25;7.18;;;1.90;;
18887;SDS011;9576;47.792;9.628;2022-08-14T11:36:31;2.80;;;2.08;;
18887;SDS011;9576;47.792;9.628;2022-08-14T11:39:36;3.07;;;1.90;;
18887;SDS011;9576;47.792;9.628;2022-08-14T11:42:38;3.47;;;2.28;;
18887;SDS011;9576;47.792;9.628;2022-08-14T11:45:43;4.47;;;2.28;;
18887;SDS011;9576;47.792;9.628;2022-08-14T11:48:48;2.13;;;1.77;;
18887;SDS011;9576;47.792;9.628;2022-08-14T11:51:52;2.63;;;1.88;;
18887;SDS011;9576;47.792;9.628;2022-08-14T11:54:56;4.97;;;1.75;;
18887;SDS011;9576;47.792;9.628;2022-08-14T11:58:00;7.65;;;2.28;;
18887;SDS011;9576;47.792;9.628;2022-08-14T12:01:05;3.03;;;1.85;;
18887;SDS011;9576;47.792;9.628;2022-08-14T12:04:09;5.03;;;1.67;;
18887;SDS011;9576;47.792;9.628;2022-08-14T12:07:12;3.47;;;2.05;;
18887;SDS011;9576;47.792;9.628;2022-08-14T12:10:17;1.98;;;1.48;;
18887;SDS011;9576;47.792;9.628;2022-08-14T12:13:19;7.72;;;1.60;;
18887;SDS011;9576;47.792;9.628;2022-08-14T12:16:22;2.65;;;2.10;;
18887;SDS011;9576;47.792;9.628;2022-08-14T12:19:25;2.00;;;1.80;;
18887;SDS011;9576;47.792;9.628;2022-08-14T12:22:31;4.25;;;1.92;;
18887;SDS011;9576;47.792;9.628;2022-08-14T12:25:36;9.57;;;2.03;;
18887;SDS011;9576;47.792;9.628;2022-08-14T12:28:38;6.13;;;1.67;;
18887;SDS011;9576;47.792;9.628;2022-08-14T12:31:41;3.80;;;1.48;;
18887;SDS011;9576;47.792;9.628;2022-08-14T12:34:50;3.10;;;1.40;;
18887;SDS011;9576;47.792;9.628;2022-08-14T12:37:53;2.83;;;1.77;;
18887;SDS011;9576;47.792;9.628;2022-08-14T12:40:57;1.75;;;1.60;;
18887;SDS011;9576;47.792;9.628;2022-08-14T12:44:00;2.50;;;1.50;;
18887;SDS011;9576;47.792;9.628;2022-08-14T12:50:06;2.03;;;1.58;;
18887;SDS011;9576;47.792;9.628;2022-08-14T12:53:10;2.58;;;1.38;;
18887;SDS011;9576;47.792;9.628;2022-08-14T12:56:16;2.75;;;1.48;;
18887;SDS011;9576;47.792;9.628;2022-08-14T12:59:20;1.58;;;1.40;;
18887;SDS011;9576;47.792;9.628;2022-08-14T13:02:35;3.20;;;1.83;;
18887;SDS011;9576;47.792;9.628;2022-08-14T13:05:38;1.77;;;1.30;;
18887;SDS011;9576;47.792;9.628;2022-08-14T13:08:41;4.35;;;1.65;;
18887;SDS011;9576;47.792;9.628;2022-08-14T13:11:46;4.57;;;1.90;;
18887;SDS011;9576;47.792;9.628;2022-08-14T13:14:50;2.80;;;1.73;;
18887;SDS011;9576;47.792;9.628;2022-08-14T13:17:54;3.53;;;2.15;;
18887;SDS011;9576;47.792;9.628;2022-08-14T13:20:59;4.47;;;2.20;;
18887;SDS011;9576;47.792;9.628;2022-08-14T13:24:04;2.33;;;1.63;;
18887;SDS011;9576;47.792;9.628;2022-08-14T13:27:13;2.65;;;1.90;;
18887;SDS011;9576;47.792;9.628;2022-08-14T13:30:16;11.25;;;1.85;;
18887;SDS011;9576;47.792;9.628;2022-08-14T13:33:19;7.80;;;2.08;;
18887;SDS011;9576;47.792;9.628;2022-08-14T13:36:23;6.07;;;1.67;;
18887;SDS011;9576;47.792;9.628;2022-08-14T13:39:27;3.83;;;1.73;;
18887;SDS011;9576;47.792;9.628;2022-08-14T13:42:33;4.68;;;1.50;;
18887;SDS011;9576;47.792;9.628;2022-08-14T13:45:39;4.10;;;1.95;;
18887;SDS011;9576;47.792;9.628;2022-08-14T13:48:43;10.00;;;1.80;;
18887;SDS011;9576;47.792;9.628;2022-08-14T13:51:46;3.70;;;1.85;;
18887;SDS011;9576;47.792;9.628;2022-08-14T13:54:49;4.07;;;1.77;;
18887;SDS011;9576;47.792;9.628;2022-08-14T13:57:56;2.22;;;1.77;;
18887;SDS011;9576;47.792;9.628;2022-08-14T14:01:00;6.03;;;1.95;;
18887;SDS011;9576;47.792;9.628;2022-08-14T14:04:03;6.55;;;1.90;;
18887;SDS011;9576;47.792;9.628;2022-08-14T14:07:07;3.70;;;1.90;;
18887;SDS011;9576;47.792;9.628;2022-08-14T14:10:12;5.88;;;1.83;;
18887;SDS011;9576;47.792;9.628;2022-08-14T14:13:17;13.63;;;2.00;;
18887;SDS011;9576;47.792;9.628;2022-08-14T14:16:21;2.75;;;2.00;;
18887;SDS011;9576;47.792;9.628;2022-08-14T14:19:25;5.03;;;1.63;;
18887;SDS011;9576;47.792;9.628;2022-08-14T14:22:30;3.83;;;1.95;;
18887;SDS011;9576;47.792;9.628;2022-08-14T14:25:33;5.50;;;2.00;;
18887;SDS011;9576;47.792;9.628;2022-08-14T14:28:37;2.08;;;1.30;;
18887;SDS011;9576;47.792;9.628;2022-08-14T14:31:41;4.63;;;1.90;;
18887;SDS011;9576;47.792;9.628;2022-08-14T14:34:46;4.22;;;2.25;;
18887;SDS011;9576;47.792;9.628;2022-08-14T14:37:50;2.75;;;2.08;;
18887;SDS011;9576;47.792;9.628;2022-08-14T14:40:54;5.45;;;2.08;;
18887;SDS011;9576;47.792;9.628;2022-08-14T14:43:58;6.75;;;2.35;;
18887;SDS011;9576;47.792;9.628;2022-08-14T14:47:09;5.55;;;2.10;;
18887;SDS011;9576;47.792;9.628;2022-08-14T14:50:14;3.65;;;2.20;;
18887;SDS011;9576;47.792;9.628;2022-08-14T14:53:16;3.92;;;2.85;;
18887;SDS011;9576;47.792;9.628;2022-08-14T14:56:19;3.50;;;2.33;;
18887;SDS011;9576;47.792;9.628;2022-08-14T14:59:23;3.58;;;2.72;;
18887;SDS011;9576;47.792;9.628;2022-08-14T15:02:31;3.22;;;2.25;;
18887;SDS011;9576;47.792;9.628;2022-08-14T15:05:34;5.28;;;2.40;;
18887;SDS011;9576;47.792;9.628;2022-08-14T15:08:36;2.75;;;2.25;;
18887;SDS011;9576;47.792;9.628;2022-08-14T15:11:39;3.28;;;2.42;;
18887;SDS011;9576;47.792;9.628;2022-08-14T15:14:43;4.22;;;2.42;;
18887;SDS011;9576;47.792;9.628;2022-08-14T15:17:45;3.63;;;2.22;;
18887;SDS011;9576;47.792;9.628;2022-08-14T15:20:47;5.95;;;2.45;;
18887;SDS011;9576;47.792;9.628;2022-08-14T15:23:53;8.32;;;2.50;;
18887;SDS011;9576;47.792;9.628;2022-08-14T15:26:55;4.32;;;2.50;;
18887;SDS011;9576;47.792;9.628;2022-08-14T15:29:58;5.93;;;2.58;;
18887;SDS011;9576;47.792;9.628;2022-08-14T15:33:01;8.68;;;2.88;;
18887;SDS011;9576;47.792;9.628;2022-08-14T15:36:03;3.45;;;2.53;;
18887;SDS011;9576;47.792;9.628;2022-08-14T15:39:06;11.50;;;2.70;;
18887;SDS011;9576;47.792;9.628;2022-08-14T15:42:08;3.28;;;2.00;;
18887;SDS011;9576;47.792;9.628;2022-08-14T15:45:12;5.53;;;2.30;;
18887;SDS011;9576;47.792;9.628;2022-08-14T15:48:16;3.65;;;2.40;;
18887;SDS011;9576;47.792;9.628;2022-08-14T15:51:18;3.88;;;2.25;;
18887;SDS011;9576;47.792;9.628;2022-08-14T15:54:20;4.10;;;2.38;;
18887;SDS011;9576;47.792;9.628;2022-08-14T15:57:23;6.82;;;2.63;;
18887;SDS011;9576;47.792;9.628;2022-08-14T16:00:26;9.80;;;2.60;;
18887;SDS011;9576;47.792;9.628;2022-08-14T16:03:46;3.88;;;2.65;;
18887;SDS011;9576;47.792;9.628;2022-08-14T16:06:48;2.55;;;1.98;;
18887;SDS011;9576;47.792;9.628;2022-08-14T16:09:53;4.85;;;2.47;;
18887;SDS011;9576;47.792;9.628;2022-08-14T16:12:55;8.70;;;2.75;;
18887;SDS011;9576;47.792;9.628;2022-08-14T16:15:59;4.30;;;2.88;;
18887;SDS011;9576;47.792;9.628;2022-08-14T16:19:03;4.50;;;2.92;;
18887;SDS011;9576;47.792;9.628;2022-08-14T16:22:08;5.70;;;3.28;;
18887;SDS011;9576;47.792;9.628;2022-08-14T16:25:10;6.22;;;3.00;;
18887;SDS011;9576;47.792;9.628;2022-08-14T16:31:18;7.32;;;3.10;;
18887;SDS011;9576;47.792;9.628;2022-08-14T16:34:22;4.07;;;2.78;;
18887;SDS011;9576;47.792;9.628;2022-08-14T16:37:24;4.65;;;2.92;;
18887;SDS011;9576;47.792;9.628;2022-08-14T16:40:26;5.28;;;3.05;;
18887;SDS011;9576;47.792;9.628;2022-08-14T16:43:29;3.72;;;3.08;;
18887;SDS011;9576;47.792;9.628;2022-08-14T16:46:35;3.90;;;2.78;;
18887;SDS011;9576;47.792;9.628;2022-08-14T16:49:42;6.28;;;3.25;;
18887;SDS011;9576;47.792;9.628;2022-08-14T16:52:46;4.57;;;3.40;;
18887;SDS011;9576;47.792;9.628;2022-08-14T16:59:13;8.37;;;4.33;;
18887;SDS011;9576;47.792;9.628;2022-08-14T17:02:18;5.80;;;4.20;;
18887;SDS011;9576;47.792;9.628;2022-08-14T17:05:34;9.30;;;4.45;;
18887;SDS011;9576;47.792;9.628;2022-08-14T17:08:39;4.65;;;3.13;;
18887;SDS011;9576;47.792;9.628;2022-08-14T17:11:48;14.48;;;3.80;;
18887;SDS011;9576;47.792;9.628;2022-08-14T17:14:54;7.35;;;3.50;;
18887;SDS011;9576;47.792;9.628;2022-08-14T17:18:04;6.82;;;3.60;;
18887;SDS011;9576;47.792;9.628;2022-08-14T17:21:16;6.18;;;3.15;;
18887;SDS011;9576;47.792;9.628;2022-08-14T17:24:21;8.90;;;3.40;;
18887;SDS011;9576;47.792;9.628;2022-08-14T17:27:23;8.43;;;3.50;;
18887;SDS011;9576;47.792;9.628;2022-08-14T17:30:26;7.18;;;3.42;;
18887;SDS011;9576;47.792;9.628;2022-08-14T17:33:50;13.35;;;3.88;;
18887;SDS011;9576;47.792;9.628;2022-08-14T17:36:53;7.18;;;3.83;;
18887;SDS011;9576;47.792;9.628;2022-08-14T17:39:59;5.93;;;3.78;;
18887;SDS011;9576;47.792;9.628;2022-08-14T17:43:02;5.55;;;3.63;;
18887;SDS011;9576;47.792;9.628;2022-08-14T17:46:05;6.82;;;3.75;;
18887;SDS011;9576;47.792;9.628;2022-08-14T17:49:09;8.07;;;3.47;;
18887;SDS011;9576;47.792;9.628;2022-08-14T17:52:13;4.85;;;3.45;;
18887;SDS011;9576;47.792;9.628;2022-08-14T17:55:17;5.65;;;3.30;;
18887;SDS011;9576;47.792;9.628;2022-08-14T17:58:21;5.32;;;3.30;;
18887;SDS011;9576;47.792;9.628;2022-08-14T18:01:24;4.03;;;3.30;;
18887;SDS011;9576;47.792;9.628;2022-08-14T18:04:30;5.50;;;3.58;;
18887;SDS011;9576;47.792;9.628;2022-08-14T18:07:33;8.05;;;3.78;;
18887;SDS011;9576;47.792;9.628;2022-08-14T18:10:37;5.47;;;3.85;;
18887;SDS011;9576;47.792;9.628;2022-08-14T18:13:42;7.32;;;3.30;;
18887;SDS011;9576;47.792;9.628;2022-08-14T18:16:46;9.25;;;3.60;;
18887;SDS011;9576;47.792;9.628;2022-08-14T18:19:50;6.00;;;3.80;;
18887;SDS011;9576;47.792;9.628;2022-08-14T18:22:52;4.57;;;3.40;;
18887;SDS011;9576;47.792;9.628;2022-08-14T18:25:54;13.23;;;3.50;;
18887;SDS011;9576;47.792;9.628;2022-08-14T18:28:58;7.72;;;4.95;;
18887;SDS011;9576;47.792;9.628;2022-08-14T18:32:03;11.55;;;3.42;;
18887;SDS011;9576;47.792;9.628;2022-08-14T18:35:43;6.97;;;3.35;;
18887;SDS011;9576;47.792;9.628;2022-08-14T18:38:47;5.38;;;3.58;;
18887;SDS011;9576;47.792;9.628;2022-08-14T18:45:56;4.88;;;3.40;;
18887;SDS011;9576;47.792;9.628;2022-08-14T18:49:12;11.10;;;4.10;;
18887;SDS011;9576;47.792;9.628;2022-08-14T18:52:16;4.85;;;3.25;;
18887;SDS011;9576;47.792;9.628;2022-08-14T18:55:38;7.30;;;4.13;;
18887;SDS011;9576;47.792;9.628;2022-08-14T18:58:47;20.85;;;3.95;;
18887;SDS011;9576;47.792;9.628;2022-08-14T19:01:53;6.22;;;3.25;;
18887;SDS011;9576;47.792;9.628;2022-08-14T19:04:55;6.38;;;3.85;;
18887;SDS011;9576;47.792;9.628;2022-08-14T19:14:45;10.43;;;2.58;;
18887;SDS011;9576;47.792;9.628;2022-08-14T19:17:48;7.63;;;3.33;;
18887;SDS011;9576;47.792;9.628;2022-08-14T19:20:51;6.05;;;2.95;;
18887;SDS011;9576;47.792;9.628;2022-08-14T19:24:06;6.72;;;3.20;;